createdAt,value
2019-05-11T00:01:56.568Z,34.67
2019-05-11T00:04:25.153Z,35.28
2019-05-11T00:06:53.672Z,36.88
2019-05-11T00:09:22.719Z,38.63
2019-05-11T00:11:51.311Z,39.35
2019-05-11T00:14:19.877Z,43.48
2019-05-11T00:16:48.454Z,41.37
2019-05-11T00:19:17.188Z,41.75
2019-05-11T00:21:45.922Z,44.03
2019-05-11T00:24:14.474Z,44.50
2019-05-11T00:26:43.125Z,42.23
2019-05-11T00:29:11.783Z,45.58
2019-05-11T00:31:40.395Z,43.38
2019-05-11T00:34:09.119Z,40.50
2019-05-11T00:36:37.626Z,36.58
2019-05-11T00:39:07.626Z,39.92
2019-05-11T00:41:36.153Z,38.78
2019-05-11T00:44:04.870Z,43.48
2019-05-11T00:46:33.574Z,44.33
2019-05-11T00:49:02.111Z,42.90
2019-05-11T00:51:30.744Z,39.92
2019-05-11T00:53:59.470Z,40.23
2019-05-11T00:56:28.065Z,46.45
2019-05-11T00:58:56.833Z,49.42
2019-05-11T01:01:25.466Z,52.13
2019-05-11T01:03:54.102Z,52.43
2019-05-11T01:06:22.630Z,53.58
2019-05-11T01:08:51.171Z,52.83
2019-05-11T01:11:19.695Z,55.48
2019-05-11T01:13:48.522Z,51.85
2019-05-11T01:16:17.007Z,53.78
2019-05-11T01:18:45.636Z,51.02
2019-05-11T01:21:14.306Z,49.95
2019-05-11T01:23:42.809Z,53.48
2019-05-11T01:26:11.329Z,56.02
2019-05-11T01:28:39.913Z,55.60
2019-05-11T01:31:08.487Z,59.67
2019-05-11T01:33:36.984Z,54.42
2019-05-11T01:36:05.701Z,57.27
2019-05-11T01:38:34.266Z,50.08
2019-05-11T01:41:03.263Z,58.45
2019-05-11T01:43:31.867Z,46.50
2019-05-11T01:46:00.414Z,55.60
2019-05-11T01:48:29.043Z,55.88
2019-05-11T01:50:57.586Z,51.08
2019-05-11T01:53:26.172Z,59.05
2019-05-11T01:55:54.766Z,56.18
2019-05-11T01:58:23.415Z,56.13
2019-05-11T02:00:51.998Z,56.55
2019-05-11T02:03:20.554Z,61.88
2019-05-11T02:05:51.670Z,60.33
2019-05-11T02:08:19.433Z,61.08
2019-05-11T02:10:48.013Z,55.83
2019-05-11T02:13:16.662Z,51.98
2019-05-11T02:15:45.228Z,59.20
2019-05-11T02:18:13.848Z,61.42
2019-05-11T02:20:42.366Z,61.40
2019-05-11T02:23:10.916Z,62.60
2019-05-11T02:25:42.024Z,63.33
2019-05-11T02:28:10.601Z,56.85
2019-05-11T02:30:39.129Z,68.35
2019-05-11T02:33:07.638Z,61.18
2019-05-11T02:35:36.181Z,56.85
2019-05-11T02:38:04.882Z,66.02
2019-05-11T02:40:33.563Z,66.82
2019-05-11T02:43:02.012Z,65.47
2019-05-11T02:45:41.817Z,66.60
2019-05-11T02:48:10.807Z,69.05
2019-05-11T02:50:39.570Z,71.60
2019-05-11T02:53:08.885Z,70.90
2019-05-11T02:55:38.798Z,66.35
2019-05-11T02:58:09.320Z,68.85
2019-05-11T03:00:43.732Z,67.12
2019-05-11T03:05:40.522Z,81.15
2019-05-11T03:08:09.061Z,78.72
2019-05-11T03:10:37.517Z,82.45
2019-05-11T03:13:05.994Z,76.47
2019-05-11T03:15:34.527Z,96.42
2019-05-11T03:18:03.017Z,85.17
2019-05-11T03:20:31.444Z,80.38
2019-05-11T03:22:59.896Z,83.25
2019-05-11T03:25:28.413Z,91.55
2019-05-11T03:27:56.900Z,81.42
2019-05-11T03:30:25.438Z,82.12
2019-05-11T03:32:53.947Z,83.20
2019-05-11T03:35:22.360Z,76.28
2019-05-11T03:37:50.845Z,76.95
2019-05-11T03:40:19.712Z,73.62
2019-05-11T03:42:48.205Z,76.33
2019-05-11T03:45:17.684Z,81.75
2019-05-11T03:47:46.188Z,80.07
2019-05-11T03:50:14.759Z,72.87
2019-05-11T03:52:43.312Z,78.67
2019-05-11T03:55:12.332Z,83.33
2019-05-11T03:57:40.770Z,89.62
2019-05-11T04:00:09.745Z,80.90
2019-05-11T04:02:38.213Z,80.60
2019-05-11T04:05:06.719Z,93.82
2019-05-11T04:07:35.167Z,82.92
2019-05-11T04:10:04.863Z,72.50
2019-05-11T04:12:35.519Z,67.50
2019-05-11T04:15:04.623Z,68.78
2019-05-11T04:17:33.063Z,63.40
2019-05-11T04:20:01.522Z,65.50
2019-05-11T04:22:30.065Z,63.95
2019-05-11T04:24:58.492Z,64.62
2019-05-11T04:27:26.980Z,74.70
2019-05-11T04:29:55.440Z,60.92
2019-05-11T04:32:24.274Z,71.02
2019-05-11T04:34:52.720Z,75.57
2019-05-11T04:37:21.181Z,82.22
2019-05-11T04:39:49.697Z,78.35
2019-05-11T04:42:18.169Z,68.45
2019-05-11T04:44:46.640Z,66.92
2019-05-11T04:47:15.082Z,77.75
2019-05-11T04:49:43.544Z,89.67
2019-05-11T04:52:12.138Z,81.70
2019-05-11T04:54:40.587Z,84.90
2019-05-11T04:57:09.043Z,77.17
2019-05-11T04:59:37.499Z,76.82
2019-05-11T05:02:05.947Z,78.10
2019-05-11T05:04:34.391Z,83.50
2019-05-11T05:07:05.513Z,81.95
2019-05-11T05:09:36.185Z,81.10
2019-05-11T05:12:03.195Z,64.67
2019-05-11T05:14:31.645Z,69.20
2019-05-11T05:17:00.096Z,80.42
2019-05-11T05:19:28.563Z,74.55
2019-05-11T05:21:57.012Z,72.75
2019-05-11T05:24:25.473Z,70.83
2019-05-11T05:26:53.924Z,76.75
2019-05-11T05:29:22.383Z,82.47
2019-05-11T05:31:50.826Z,76.62
2019-05-11T05:34:19.293Z,79.65
2019-05-11T05:36:47.729Z,73.12
2019-05-11T05:39:16.180Z,78.65
2019-05-11T05:41:56.587Z,76.47
2019-05-11T05:44:14.803Z,77.15
2019-05-11T05:46:43.237Z,86.50
2019-05-11T05:49:11.763Z,94.40
2019-05-11T05:51:40.207Z,87.15
2019-05-11T05:54:08.723Z,78.17
2019-05-11T05:56:37.203Z,81.95
2019-05-11T05:59:05.736Z,83.97
2019-05-11T06:01:34.210Z,92.67
2019-05-11T06:04:02.690Z,86.20
2019-05-11T06:06:31.150Z,84.07
2019-05-11T06:08:59.597Z,91.63
2019-05-11T06:11:28.071Z,84.85
2019-05-11T06:13:56.586Z,81.00
2019-05-11T06:16:25.038Z,87.25
2019-05-11T06:18:53.504Z,90.62
2019-05-11T06:21:21.941Z,90.65
2019-05-11T06:23:50.394Z,88.10
2019-05-11T06:26:18.861Z,84.60
2019-05-11T06:28:47.327Z,86.28
2019-05-11T06:31:15.845Z,89.77
2019-05-11T06:33:44.303Z,89.62
2019-05-11T06:36:12.776Z,84.15
2019-05-11T06:38:41.261Z,85.17
2019-05-11T06:41:09.927Z,85.87
2019-05-11T06:43:38.435Z,84.05
2019-05-11T06:46:06.940Z,98.58
2019-05-11T06:48:35.463Z,88.87
2019-05-11T06:51:03.975Z,94.62
2019-05-11T06:53:32.450Z,95.00
2019-05-11T06:56:00.947Z,87.88
2019-05-11T06:58:29.351Z,78.75
2019-05-11T07:00:57.819Z,92.70
2019-05-11T07:03:26.268Z,86.00
2019-05-11T07:05:54.745Z,95.50
2019-05-11T07:08:23.278Z,92.55
2019-05-11T07:10:51.729Z,93.67
2019-05-11T07:13:21.897Z,88.27
2019-05-11T07:15:50.440Z,99.07
2019-05-11T07:18:19.093Z,89.95
2019-05-11T07:20:50.778Z,93.03
2019-05-11T07:23:17.849Z,98.55
2019-05-11T07:25:46.302Z,90.70
2019-05-11T07:28:14.801Z,106.03
2019-05-11T07:30:43.252Z,92.27
2019-05-11T07:33:12.226Z,96.95
2019-05-11T07:35:40.751Z,95.30
2019-05-11T07:38:09.251Z,90.22
2019-05-11T07:40:38.599Z,99.87
2019-05-11T07:43:09.839Z,96.63
2019-05-11T07:45:38.816Z,93.80
2019-05-11T07:48:08.019Z,83.92
2019-05-11T07:50:38.662Z,86.25
2019-05-11T07:53:08.158Z,92.45
2019-05-11T07:55:38.558Z,89.15
2019-05-11T07:58:08.090Z,95.53
2019-05-11T08:00:39.815Z,91.67
2019-05-11T08:03:09.014Z,85.62
2019-05-11T08:05:38.552Z,92.42
2019-05-11T08:08:08.731Z,96.10
2019-05-11T08:10:38.997Z,98.27
2019-05-11T08:13:09.179Z,87.27
2019-05-11T08:15:38.323Z,94.05
2019-05-11T08:18:08.559Z,95.22
2019-05-11T08:20:38.569Z,85.92
2019-05-11T08:23:09.081Z,95.30
2019-05-11T08:25:38.047Z,89.52
2019-05-11T08:28:11.600Z,98.62
2019-05-11T08:30:38.107Z,99.45
2019-05-11T08:33:08.674Z,108.05
2019-05-11T08:35:38.984Z,98.75
2019-05-11T08:38:08.792Z,102.58
2019-05-11T08:40:37.996Z,99.75
2019-05-11T08:43:08.777Z,106.35
2019-05-11T08:45:39.371Z,94.37
2019-05-11T08:48:08.161Z,96.90
2019-05-11T08:50:38.224Z,91.17
2019-05-11T08:53:08.598Z,92.37
2019-05-11T08:55:38.128Z,98.80
2019-05-11T08:58:07.894Z,90.90
2019-05-11T09:00:38.938Z,89.75
2019-05-11T09:03:08.559Z,90.38
2019-05-11T09:05:38.681Z,81.80
2019-05-11T09:08:08.234Z,73.05
2019-05-11T09:10:39.593Z,84.85
2019-05-11T09:13:08.033Z,65.70
2019-05-11T09:15:40.247Z,70.17
2019-05-11T09:18:08.427Z,64.45
2019-05-11T09:20:37.829Z,61.28
2019-05-11T09:23:08.174Z,56.55
2019-05-11T09:25:38.500Z,51.48
2019-05-11T09:28:08.599Z,53.28
2019-05-11T09:30:37.783Z,46.98
2019-05-11T09:33:08.430Z,46.18
2019-05-11T09:35:49.350Z,45.50
2019-05-11T09:38:08.023Z,45.78
2019-05-11T09:40:38.594Z,45.63
2019-05-11T09:43:08.520Z,47.08
2019-05-11T09:45:47.928Z,43.42
2019-05-11T09:48:08.653Z,47.27
2019-05-11T09:50:38.812Z,43.68
2019-05-11T09:53:08.536Z,40.23
2019-05-11T09:55:38.887Z,41.35
2019-05-11T09:58:08.523Z,43.52
2019-05-11T10:00:38.864Z,39.70
2019-05-11T10:03:08.232Z,38.45
2019-05-11T10:05:38.238Z,30.02
2019-05-11T10:08:07.849Z,37.40
2019-05-11T10:10:38.343Z,33.53
2019-05-11T10:13:08.059Z,33.58
2019-05-11T10:15:38.560Z,33.48
2019-05-11T10:18:08.207Z,37.55
2019-05-11T10:20:39.050Z,33.45
2019-05-11T10:23:08.413Z,33.25
2019-05-11T10:25:39.121Z,32.83
2019-05-11T10:28:08.714Z,33.28
2019-05-11T10:30:38.593Z,33.60
2019-05-11T10:33:08.276Z,32.25
2019-05-11T10:35:37.814Z,34.78
2019-05-11T10:38:08.801Z,36.50
2019-05-11T10:40:38.708Z,34.40
2019-05-11T10:43:07.926Z,32.48
2019-05-11T10:45:37.919Z,34.73
2019-05-11T10:48:08.655Z,32.42
2019-05-11T10:50:38.086Z,30.70
2019-05-11T10:53:07.987Z,33.00
2019-05-11T10:55:38.663Z,25.57
2019-05-11T10:58:08.672Z,31.30
2019-05-11T11:00:38.812Z,30.25
2019-05-11T11:03:08.496Z,29.67
2019-05-11T11:05:38.432Z,24.40
2019-05-11T11:08:08.315Z,26.82
2019-05-11T11:10:37.892Z,20.23
2019-05-11T11:13:08.328Z,21.42
2019-05-11T11:15:38.083Z,27.25
2019-05-11T11:18:08.529Z,19.65
2019-05-11T11:20:38.395Z,17.67
2019-05-11T11:23:08.798Z,17.67
2019-05-11T11:25:37.641Z,18.60
2019-05-11T11:28:08.274Z,20.27
2019-05-11T11:30:37.899Z,20.77
2019-05-11T11:33:07.968Z,20.68
2019-05-11T11:35:38.564Z,18.45
2019-05-11T11:38:08.681Z,20.27
2019-05-11T11:40:38.675Z,14.23
2019-05-11T11:43:08.669Z,18.02
2019-05-11T11:45:38.083Z,17.48
2019-05-11T11:48:08.655Z,16.93
2019-05-11T11:50:37.898Z,16.42
2019-05-11T11:53:08.382Z,16.87
2019-05-11T11:55:38.845Z,15.90
2019-05-11T11:58:08.297Z,13.88
2019-05-11T12:00:39.130Z,16.25
2019-05-11T12:03:07.989Z,16.73
2019-05-11T12:05:38.643Z,15.78
2019-05-11T12:08:08.294Z,15.55
2019-05-11T12:10:37.995Z,12.78
2019-05-11T12:13:08.462Z,17.85
2019-05-11T12:15:38.584Z,12.55
2019-05-11T12:18:08.274Z,14.63
2019-05-11T12:20:38.905Z,11.40
2019-05-11T12:23:08.783Z,12.98
2019-05-11T12:25:40.340Z,14.20
2019-05-11T12:28:08.079Z,14.95
2019-05-11T12:30:37.674Z,17.07
2019-05-11T12:33:08.196Z,9.63
2019-05-11T12:35:37.808Z,10.03
2019-05-11T12:38:07.805Z,13.38
2019-05-11T12:40:38.688Z,11.00
2019-05-11T12:43:08.199Z,11.88
2019-05-11T12:45:40.149Z,9.80
2019-05-11T12:48:09.107Z,13.05
2019-05-11T12:50:37.986Z,13.93
2019-05-11T12:53:08.010Z,16.90
2019-05-11T12:55:37.975Z,11.97
2019-05-11T12:58:08.581Z,13.28
2019-05-11T13:00:39.080Z,12.90
2019-05-11T13:03:08.049Z,8.23
2019-05-11T13:05:37.820Z,12.47
2019-05-11T13:08:07.972Z,14.87
2019-05-11T13:10:37.661Z,12.98
2019-05-11T13:13:08.682Z,10.70
2019-05-11T13:15:38.523Z,9.63
2019-05-11T13:18:08.435Z,9.50
2019-05-11T13:20:37.762Z,11.63
2019-05-11T13:23:07.998Z,9.43
2019-05-11T13:25:38.600Z,10.95
2019-05-11T13:28:08.569Z,12.15
2019-05-11T13:30:38.217Z,8.48
2019-05-11T13:33:08.519Z,10.82
2019-05-11T13:35:37.999Z,13.90
2019-05-11T13:38:08.538Z,8.35
2019-05-11T13:40:38.253Z,11.38
2019-05-11T13:43:08.285Z,12.43
2019-05-11T13:45:38.711Z,10.15
2019-05-11T13:48:08.466Z,10.93
2019-05-11T13:50:38.644Z,11.93
2019-05-11T13:53:07.776Z,10.65
2019-05-11T13:55:38.555Z,7.22
2019-05-11T13:58:08.319Z,11.68
2019-05-11T14:00:38.033Z,11.65
2019-05-11T14:03:08.369Z,10.48
2019-05-11T14:05:37.820Z,10.20
2019-05-11T14:08:08.198Z,9.80
2019-05-11T14:10:38.391Z,10.85
2019-05-11T14:13:08.785Z,12.40
2019-05-11T14:15:37.784Z,9.50
2019-05-11T14:18:09.408Z,9.45
2019-05-11T14:20:37.855Z,6.92
2019-05-11T14:23:07.754Z,7.10
2019-05-11T14:25:38.059Z,11.73
2019-05-11T14:28:08.193Z,9.35
2019-05-11T14:30:38.537Z,6.97
2019-05-11T14:33:08.719Z,9.05
2019-05-11T14:35:38.504Z,8.00
2019-05-11T14:38:08.032Z,8.45
2019-05-11T14:40:38.769Z,7.53
2019-05-11T14:43:08.437Z,4.97
2019-05-11T14:45:38.028Z,9.48
2019-05-11T14:48:22.209Z,5.67
2019-05-11T14:50:38.660Z,8.10
2019-05-11T14:53:08.593Z,9.25
2019-05-11T14:55:38.157Z,16.30
2019-05-11T14:58:08.327Z,6.35
2019-05-11T15:00:39.268Z,12.13
2019-05-11T15:03:07.899Z,11.40
2019-05-11T15:05:37.607Z,9.65
2019-05-11T15:08:08.605Z,7.85
2019-05-11T15:10:38.267Z,5.65
2019-05-11T15:13:08.039Z,11.60
2019-05-11T15:15:36.727Z,11.05
2019-05-11T15:18:05.136Z,12.53
2019-05-11T15:20:33.618Z,6.62
2019-05-11T15:23:02.071Z,8.53
2019-05-11T15:25:30.492Z,9.45
2019-05-11T15:27:58.971Z,7.80
2019-05-11T15:30:28.728Z,8.18
2019-05-11T15:32:58.476Z,6.20
2019-05-11T15:35:28.447Z,10.00
2019-05-11T15:37:58.279Z,8.00
2019-05-11T15:40:27.940Z,6.37
2019-05-11T15:42:58.648Z,8.43
2019-05-11T15:45:27.756Z,7.53
2019-05-11T15:47:58.684Z,8.70
2019-05-11T15:50:28.873Z,8.65
2019-05-11T15:52:58.218Z,6.70
2019-05-11T15:55:27.789Z,5.70
2019-05-11T15:57:56.518Z,6.15
2019-05-11T16:00:24.926Z,5.17
2019-05-11T16:02:53.365Z,8.98
2019-05-11T16:05:21.908Z,7.78
2019-05-11T16:07:50.390Z,5.50
2019-05-11T16:10:19.159Z,12.03
2019-05-11T16:12:48.556Z,5.78
2019-05-11T16:15:19.237Z,4.90
2019-05-11T16:17:48.765Z,6.30
2019-05-11T16:20:18.811Z,8.65
2019-05-11T16:22:47.997Z,3.65
2019-05-11T16:25:19.209Z,4.80
2019-05-11T16:27:47.109Z,5.15
2019-05-11T16:30:20.820Z,6.47
2019-05-11T16:32:48.944Z,5.72
2019-05-11T16:35:18.161Z,7.53
2019-05-11T16:37:48.726Z,5.85
2019-05-11T16:40:20.598Z,6.40
2019-05-11T16:42:47.908Z,5.83
2019-05-11T16:45:19.047Z,8.93
2019-05-11T16:47:48.282Z,5.17
2019-05-11T16:50:18.011Z,3.47
2019-05-11T16:52:48.148Z,8.78
2019-05-11T16:55:18.387Z,7.08
2019-05-11T16:57:48.405Z,5.35
2019-05-11T17:00:17.840Z,4.28
2019-05-11T17:02:48.682Z,5.05
2019-05-11T17:05:25.948Z,4.50
2019-05-11T17:07:48.425Z,3.12
2019-05-11T17:10:17.936Z,4.90
2019-05-11T17:12:48.500Z,2.92
2019-05-11T17:15:18.546Z,4.30
2019-05-11T17:17:48.609Z,5.20
2019-05-11T17:20:19.074Z,2.30
2019-05-11T17:22:48.470Z,3.77
2019-05-11T17:25:19.127Z,3.05
2019-05-11T17:27:48.814Z,5.35
2019-05-11T17:30:19.281Z,4.42
2019-05-11T17:32:49.249Z,7.50
2019-05-11T17:35:18.215Z,6.97
2019-05-11T17:37:48.471Z,5.05
2019-05-11T17:40:20.649Z,9.20
2019-05-11T17:42:47.971Z,7.05
2019-05-11T17:45:19.031Z,5.67
2019-05-11T17:47:47.012Z,5.65
2019-05-11T17:50:15.677Z,4.28
2019-05-11T17:52:44.120Z,7.70
2019-05-11T17:55:12.573Z,6.03
2019-05-11T17:57:41.577Z,4.30
2019-05-11T18:00:10.356Z,10.08
2019-05-11T18:02:41.224Z,6.35
2019-05-11T18:05:09.309Z,2.98
2019-05-11T18:07:38.543Z,8.28
2019-05-11T18:10:08.458Z,5.30
2019-05-11T18:12:39.113Z,3.35
2019-05-11T18:15:08.634Z,6.17
2019-05-11T18:17:37.203Z,6.60
2019-05-11T18:20:17.354Z,6.95
2019-05-11T18:22:39.379Z,4.78
2019-05-11T18:25:08.788Z,7.72
2019-05-11T18:27:38.690Z,7.28
2019-05-11T18:30:08.790Z,3.45
2019-05-11T18:32:39.621Z,3.50
2019-05-11T18:35:08.374Z,3.33
2019-05-11T18:37:38.940Z,5.67
2019-05-11T18:40:07.950Z,3.60
2019-05-11T18:42:38.259Z,6.22
2019-05-11T18:45:08.327Z,10.70
2019-05-11T18:47:38.170Z,4.60
2019-05-11T18:50:07.822Z,5.33
2019-05-11T18:52:36.248Z,6.28
2019-05-11T18:55:05.604Z,6.12
2019-05-11T18:57:34.040Z,4.17
2019-05-11T19:00:02.640Z,11.08
2019-05-11T19:02:31.091Z,6.03
2019-05-11T19:04:59.523Z,5.60
2019-05-11T19:07:28.418Z,5.47
2019-05-11T19:09:57.720Z,6.05
2019-05-11T19:12:28.340Z,6.97
2019-05-11T19:14:58.549Z,4.35
2019-05-11T19:17:28.869Z,5.45
2019-05-11T19:19:57.981Z,7.87
2019-05-11T19:22:28.722Z,3.98
2019-05-11T19:24:58.234Z,6.30
2019-05-11T19:27:28.687Z,5.17
2019-05-11T19:29:56.879Z,10.15
2019-05-11T19:32:25.312Z,3.45
2019-05-11T19:34:53.770Z,6.78
2019-05-11T19:37:22.165Z,7.40
2019-05-11T19:39:50.902Z,6.20
2019-05-11T19:42:20.997Z,6.37
2019-05-11T19:44:49.423Z,4.50
2019-05-11T19:47:18.197Z,11.35
2019-05-11T19:49:47.838Z,7.78
2019-05-11T19:52:17.764Z,8.55
2019-05-11T19:54:48.653Z,7.67
2019-05-11T19:57:17.916Z,6.60
2019-05-11T19:59:48.037Z,10.48
2019-05-11T20:02:18.634Z,8.23
2019-05-11T20:04:48.150Z,6.17
2019-05-11T20:07:18.229Z,11.60
2019-05-11T20:09:47.025Z,6.35
2019-05-11T20:12:17.874Z,3.98
2019-05-11T20:14:48.151Z,11.93
2019-05-11T20:17:18.150Z,8.63
2019-05-11T20:19:46.349Z,6.75
2019-05-11T20:22:14.764Z,5.70
2019-05-11T20:24:43.192Z,4.95
2019-05-11T20:27:11.606Z,6.90
2019-05-11T20:29:40.044Z,6.53
2019-05-11T20:32:08.558Z,11.33
2019-05-11T20:34:38.180Z,8.70
2019-05-11T20:37:07.812Z,7.22
2019-05-11T20:39:37.935Z,6.05
2019-05-11T20:42:08.583Z,4.78
2019-05-11T20:44:37.848Z,6.78
2019-05-11T20:47:06.541Z,9.23
2019-05-11T20:49:34.998Z,8.45
2019-05-11T20:52:03.423Z,6.62
2019-05-11T20:54:34.526Z,3.50
2019-05-11T20:57:02.950Z,5.28
2019-05-11T20:59:31.396Z,6.53
2019-05-11T21:01:59.812Z,7.50
2019-05-11T21:04:28.442Z,9.30
2019-05-11T21:06:58.007Z,6.83
2019-05-11T21:09:28.925Z,8.65
2019-05-11T21:11:58.784Z,9.03
2019-05-11T21:14:28.779Z,5.72
2019-05-11T21:16:58.622Z,3.25
2019-05-11T21:19:28.326Z,9.75
2019-05-11T21:21:58.993Z,5.53
2019-05-11T21:24:28.072Z,8.38
2019-05-11T21:26:58.523Z,8.13
2019-05-11T21:29:28.328Z,6.30
2019-05-11T21:31:58.986Z,5.33
2019-05-11T21:34:28.003Z,8.03
2019-05-11T21:36:56.640Z,5.80
2019-05-11T21:39:25.054Z,7.00
2019-05-11T21:41:53.557Z,8.15
2019-05-11T21:44:21.999Z,6.20
2019-05-11T21:46:50.458Z,8.58
2019-05-11T21:49:18.945Z,6.25
2019-05-11T21:51:49.389Z,6.58
2019-05-11T21:54:17.693Z,7.08
2019-05-11T21:56:48.583Z,9.00
2019-05-11T21:59:18.232Z,3.12
2019-05-11T22:01:48.489Z,7.42
2019-05-11T22:04:19.019Z,7.60
2019-05-11T22:06:48.374Z,3.67
2019-05-11T22:09:18.574Z,6.40
2019-05-11T22:11:48.669Z,6.72
2019-05-11T22:14:17.274Z,6.33
2019-05-11T22:16:47.896Z,5.60
2019-05-11T22:19:17.801Z,5.90
2019-05-11T22:21:49.455Z,8.63
2019-05-11T22:24:17.971Z,5.10
2019-05-11T22:26:46.493Z,8.55
2019-05-11T22:29:14.987Z,8.40
2019-05-11T22:31:43.450Z,14.43
2019-05-11T22:34:11.930Z,9.18
2019-05-11T22:36:40.356Z,6.20
2019-05-11T22:39:09.549Z,7.65
2019-05-11T22:41:39.639Z,6.85
2019-05-11T22:44:10.992Z,5.12
2019-05-11T22:46:38.673Z,9.60
2019-05-11T22:49:08.512Z,4.28
2019-05-11T22:51:37.148Z,5.55
2019-05-11T22:54:10.743Z,4.72
2019-05-11T22:56:37.866Z,5.53
2019-05-11T22:59:08.080Z,5.47
2019-05-11T23:01:37.898Z,8.30
2019-05-11T23:04:06.169Z,5.00
2019-05-11T23:06:34.588Z,8.30
2019-05-11T23:09:03.681Z,4.00
2019-05-11T23:11:32.110Z,9.20
2019-05-11T23:14:00.519Z,8.50
2019-05-11T23:16:28.940Z,5.17
2019-05-11T23:18:57.372Z,7.20
2019-05-11T23:21:30.074Z,5.72
2019-05-11T23:23:58.196Z,6.95
2019-05-11T23:26:28.116Z,8.85
2019-05-11T23:28:58.012Z,4.33
2019-05-11T23:31:27.833Z,5.90
2019-05-11T23:33:57.829Z,6.67
2019-05-11T23:36:28.034Z,9.40
2019-05-11T23:38:58.564Z,9.55
2019-05-11T23:41:28.791Z,10.25
2019-05-11T23:43:58.399Z,5.65
2019-05-11T23:46:28.425Z,13.55
2019-05-11T23:48:58.118Z,6.22
2019-05-11T23:51:28.242Z,6.22
2019-05-11T23:53:58.895Z,5.75
2019-05-11T23:56:28.195Z,4.90
2019-05-11T23:58:57.913Z,8.30
